This is the latest recevied weather packets stored in our database for station/object CYYJ. If no packets are shown the sender has not sent any weather packets the latest 10 day(s).
| Time | Temp. | Humidity | Pressure | Rain* | Wind** | Luminosity | Snow |
|---|---|---|---|---|---|---|---|
| 1777785204 | 13.89° C | 76% | 1014.2 hPa | - | - | - | - |
| 1777784603 | 15.56° C | 67% | 1013.9 hPa | - | - | - | - |
| 1777784003 | 15.56° C | 67% | 1013.9 hPa | - | - | - | - |
| 1777783408 | 15.56° C | 67% | 1013.9 hPa | - | - | - | - |
| 1777782803 | 15.56° C | 67% | 1013.9 hPa | - | - | - | - |
| 1777782223 | 15.56° C | 67% | 1013.9 hPa | - | - | - | - |
| 1777781603 | 15.56° C | 67% | 1013.9 hPa | - | - | - | - |
| 1777781127 | 20° C | 45% | 1013.2 hPa | - | - | - | - |
| 1777780407 | 20° C | 45% | 1013.2 hPa | - | - | - | - |
| 1777779803 | 20° C | 45% | 1013.2 hPa | - | - | - | - |
| 1777779209 | 20° C | 45% | 1013.2 hPa | - | - | - | - |
| 1777778606 | 20° C | 45% | 1013.2 hPa | - | - | - | - |
| 1777778008 | 20° C | 45% | 1013.2 hPa | - | - | - | - |
| 1777777402 | 21.67° C | 43% | 1013.2 hPa | - | - | - | - |
| 1777776805 | 21.67° C | 43% | 1013.2 hPa | - | - | - | - |
| 1777776203 | 21.67° C | 43% | 1013.2 hPa | - | - | - | - |
| 1777775605 | 21.67° C | 43% | 1013.2 hPa | - | - | - | - |
| 1777775002 | 21.67° C | 43% | 1013.2 hPa | - | - | - | - |
| 1777774405 | 21.67° C | 43% | 1013.2 hPa | - | - | - | - |
| 1777773805 | 22.78° C | 40% | 1013.9 hPa | - | - | - | - |
| 1777773206 | 22.78° C | 40% | 1013.9 hPa | - | - | - | - |
| 1777772006 | 22.78° C | 40% | 1013.9 hPa | - | - | - | - |
| 1777771402 | 22.78° C | 40% | 1013.9 hPa | - | - | - | - |
| 1777767200 | 22.78° C | 43% | 1014.2 hPa | - | - | - | - |
| 1777766605 | 21.67° C | 46% | 1014.9 hPa | - | - | - | - |
* Rain since midnight (hover to see other rain measurements)
** Current wind speed in m/s (hover to see current wind gust speed)